Time;durP1;ratioP1;P1;durP2;ratioP2;P2;SDS_P1;SDS_P2;PMS_P1;PMS_P2;Temp;Humidity;BMP_temperature;BMP_pressure;BME280_temperature;BME280_humidity;BME280_pressure;Samples;Min_cycle;Max_cycle;Signal;HPM_P1;HPM_P2
2021/06/20 00:01:12;;;;;;;15.35;6.82;;;12.10;99.90;;;;;;5875798;23;20054;-96
2021/06/20 00:03:39;;;;;;;16.42;6.95;;;12.10;99.90;;;;;;4991028;28;20046;-95
2021/06/20 00:06:24;;;;;;;9.77;6.43;;;12.10;99.90;;;;;;4973630;28;20051;-96
2021/06/20 00:08:55;;;;;;;12.63;6.07;;;12.10;99.90;;;;;;4991547;28;20034;-96
2021/06/20 00:11:21;;;;;;;13.75;6.40;;;12.10;99.90;;;;;;4996270;28;20019;-96
2021/06/20 00:13:53;;;;;;;14.05;6.70;;;12.10;99.90;;;;;;4979302;28;20038;-96
2021/06/20 00:16:20;;;;;;;14.15;6.75;;;12.10;99.90;;;;;;4982320;28;20031;-95
2021/06/20 00:19:05;;;;;;;16.73;7.18;;;12.10;99.90;;;;;;5011729;28;20022;-95
2021/06/20 00:21:32;;;;;;;12.10;7.10;;;12.10;99.90;;;;;;5001987;28;20034;-95
2021/06/20 00:23:58;;;;;;;10.02;6.20;;;12.00;99.90;;;;;;5006899;28;20034;-96
2021/06/20 00:26:24;;;;;;;10.63;5.90;;;12.00;99.90;;;;;;5008254;28;20129;-95
2021/06/20 00:28:49;;;;;;;12.93;6.38;;;12.00;99.90;;;;;;5003743;28;20118;-96
2021/06/20 00:31:16;;;;;;;13.63;6.15;;;11.90;99.90;;;;;;5003949;28;20491;-96
2021/06/20 00:33:42;;;;;;;10.20;6.05;;;11.90;99.90;;;;;;5004323;28;20023;-95
2021/06/20 00:36:10;;;;;;;13.10;6.10;;;11.90;99.90;;;;;;5003373;28;20094;-95
2021/06/20 00:38:37;;;;;;;7.82;5.68;;;11.90;99.90;;;;;;4986569;28;20027;-96
2021/06/20 00:41:06;;;;;;;12.23;6.35;;;11.90;99.90;;;;;;5001065;28;20464;-95
2021/06/20 00:43:33;;;;;;;12.60;6.95;;;11.90;99.90;;;;;;4985709;28;20038;-95
2021/06/20 00:46:04;;;;;;;13.70;6.50;;;11.90;99.90;;;;;;5007651;28;20030;-96
2021/06/20 00:48:31;;;;;;;11.40;6.40;;;11.90;99.90;;;;;;5006153;28;20018;-96
2021/06/20 00:50:59;;;;;;;14.45;6.97;;;11.90;99.90;;;;;;4991522;28;20041;-95
2021/06/20 00:53:25;;;;;;;8.30;6.18;;;12.00;99.90;;;;;;5003348;28;20026;-95
2021/06/20 00:59:37;;;;;;;11.85;6.38;;;11.90;99.90;;;;;;4993924;28;20053;-96
2021/06/20 01:02:56;;;;;;;15.10;6.78;;;12.00;99.90;;;;;;5000675;28;20094;-96
2021/06/20 01:05:27;;;;;;;14.02;6.35;;;12.00;99.90;;;;;;5007065;28;20107;-95
2021/06/20 01:08:21;;;;;;;9.23;5.82;;;12.00;99.90;;;;;;4999847;28;20094;-96
2021/06/20 01:11:06;;;;;;;9.60;5.95;;;12.10;99.90;;;;;;5016707;28;20034;-96
2021/06/20 01:13:55;;;;;;;12.65;7.22;;;12.10;99.90;;;;;;5019200;28;20030;-95
2021/06/20 01:31:20;;;;;;;11.20;6.13;;;11.90;99.90;;;;;;5102331;23;20050;-96
2021/06/20 01:34:16;;;;;;;11.85;6.32;;;11.80;99.90;;;;;;5056507;28;20024;-95
2021/06/20 01:36:57;;;;;;;10.88;6.38;;;11.70;99.90;;;;;;5029715;28;20038;-96
2021/06/20 01:49:45;;;;;;;12.27;8.38;;;11.70;99.90;;;;;;5043500;28;20049;-95
2021/06/20 01:52:11;;;;;;;9.85;6.80;;;11.70;99.90;;;;;;5029426;28;20033;-94
2021/06/20 01:57:36;;;;;;;7.50;5.30;;;11.80;99.90;;;;;;5053464;23;20038;-95
2021/06/20 02:08:43;;;;;;;11.77;6.57;;;11.80;99.90;;;;;;5463427;23;20052;-95
2021/06/20 02:11:14;;;;;;;14.00;6.55;;;11.80;99.90;;;;;;5036562;28;20029;-95
2021/06/20 02:13:41;;;;;;;10.02;6.82;;;11.80;99.90;;;;;;5049784;28;20040;-95
2021/06/20 02:16:08;;;;;;;10.48;6.90;;;11.80;99.90;;;;;;5022193;28;20068;-95
2021/06/20 02:18:35;;;;;;;15.93;6.97;;;11.80;99.90;;;;;;5042536;28;20034;-94
2021/06/20 02:21:05;;;;;;;9.38;6.28;;;11.90;99.90;;;;;;5022866;28;20017;-96
2021/06/20 02:24:01;;;;;;;12.07;7.07;;;11.80;99.90;;;;;;5050228;28;20055;-95
2021/06/20 02:36:50;;;;;;;14.68;7.50;;;11.70;99.90;;;;;;5079793;23;20061;-96
2021/06/20 02:40:11;;;;;;;11.35;7.68;;;11.70;99.90;;;;;;5029380;28;20025;-96
2021/06/20 03:00:03;;;;;;;11.95;7.50;;;11.70;99.90;;;;;;6070590;23;20021;31
2021/06/20 03:02:30;;;;;;;10.80;8.02;;;11.70;99.90;;;;;;4932684;29;20053;-94
2021/06/20 03:04:56;;;;;;;11.48;7.63;;;11.60;99.90;;;;;;4942847;29;20036;-96
2021/06/20 03:07:24;;;;;;;12.80;7.88;;;11.60;99.90;;;;;;4906273;29;20035;-95
2021/06/20 03:09:50;;;;;;;13.30;7.20;;;11.60;99.90;;;;;;4925039;29;20020;-95
2021/06/20 03:12:17;;;;;;;9.65;6.45;;;11.70;99.90;;;;;;4937556;29;20020;-95
2021/06/20 03:14:45;;;;;;;12.13;7.47;;;11.70;99.90;;;;;;4938746;29;20039;-96
2021/06/20 03:17:12;;;;;;;13.38;7.35;;;11.70;99.90;;;;;;4919865;29;20032;-95
2021/06/20 03:19:39;;;;;;;13.95;7.55;;;11.70;99.90;;;;;;4921495;29;20099;-95
2021/06/20 03:22:07;;;;;;;10.52;7.32;;;11.70;99.90;;;;;;4933824;29;20023;-95
2021/06/20 03:24:43;;;;;;;14.55;8.68;;;11.60;99.90;;;;;;4947923;29;20039;-95
2021/06/20 03:27:09;;;;;;;15.25;9.30;;;11.60;99.90;;;;;;4921415;29;20024;-95
2021/06/20 03:29:36;;;;;;;10.13;7.88;;;11.60;99.90;;;;;;4927993;29;20470;-93
2021/06/20 03:32:03;;;;;;;12.55;8.07;;;11.60;99.90;;;;;;4919416;29;20087;-94
2021/06/20 03:34:32;;;;;;;13.05;7.68;;;11.60;99.90;;;;;;4936114;29;20028;-94
2021/06/20 03:37:01;;;;;;;13.23;9.32;;;11.60;99.90;;;;;;4918988;29;20052;-94
2021/06/20 03:39:30;;;;;;;17.30;10.82;;;11.60;99.90;;;;;;4943367;29;20027;-94
2021/06/20 03:41:57;;;;;;;18.17;10.48;;;11.60;99.90;;;;;;4907811;29;20058;-95
2021/06/20 03:44:31;;;;;;;14.10;10.35;;;11.50;99.90;;;;;;4941499;29;20044;-95
2021/06/20 03:46:59;;;;;;;13.82;10.30;;;11.50;99.90;;;;;;4921018;29;20032;-95
2021/06/20 03:49:31;;;;;;;12.98;9.43;;;11.40;99.90;;;;;;4920872;29;20040;-95
2021/06/20 03:52:01;;;;;;;18.45;11.60;;;11.40;99.90;;;;;;4906892;29;20080;-96
2021/06/20 03:54:35;;;;;;;21.33;12.15;;;11.40;99.90;;;;;;4921913;29;20032;-95
2021/06/20 03:57:26;;;;;;;15.75;10.90;;;11.30;99.90;;;;;;4936030;29;20100;-94
2021/06/20 04:00:10;;;;;;;20.88;12.60;;;11.40;99.90;;;;;;4939269;29;20028;-95
2021/06/20 04:02:36;;;;;;;17.83;11.70;;;11.40;99.90;;;;;;4925605;29;20048;-96
2021/06/20 04:05:08;;;;;;;16.48;11.27;;;11.40;99.90;;;;;;4939114;29;20067;-96
2021/06/20 04:07:34;;;;;;;19.33;12.68;;;11.40;99.90;;;;;;4921229;29;20044;-96
2021/06/20 04:10:03;;;;;;;17.55;12.40;;;11.40;99.90;;;;;;4900233;29;20036;-94
2021/06/20 04:12:29;;;;;;;18.35;11.85;;;11.40;99.90;;;;;;4931093;29;20036;-94
2021/06/20 04:14:55;;;;;;;19.45;11.63;;;11.30;99.90;;;;;;4938117;29;20008;-94
2021/06/20 04:17:23;;;;;;;18.48;11.45;;;11.30;99.90;;;;;;4943813;29;20080;-95
2021/06/20 04:19:49;;;;;;;16.25;10.80;;;11.30;99.90;;;;;;4942058;29;20035;-95
2021/06/20 04:22:15;;;;;;;16.65;10.90;;;11.30;99.90;;;;;;4917937;29;20092;-95
2021/06/20 04:24:41;;;;;;;15.65;10.38;;;11.30;99.90;;;;;;4931108;29;20036;-94
2021/06/20 04:27:09;;;;;;;18.38;10.35;;;11.20;99.90;;;;;;4915787;29;20043;-95
2021/06/20 04:29:37;;;;;;;16.10;10.07;;;11.20;99.90;;;;;;4916898;29;20062;-96
2021/06/20 04:32:03;;;;;;;14.30;10.75;;;11.20;99.90;;;;;;4925645;29;20103;-95
2021/06/20 04:34:28;;;;;;;15.63;9.43;;;11.20;99.90;;;;;;4922635;29;20024;-95
2021/06/20 04:36:54;;;;;;;18.67;9.77;;;11.10;99.90;;;;;;4924829;29;20059;-95
2021/06/20 04:39:20;;;;;;;20.58;10.82;;;11.10;99.90;;;;;;4924150;29;20032;-96
2021/06/20 04:41:46;;;;;;;19.58;10.20;;;11.10;99.90;;;;;;4925294;29;20490;-96
2021/06/20 04:47:16;;;;;;;18.17;11.10;;;11.10;99.90;;;;;;4889300;29;20115;-96
2021/06/20 04:49:42;;;;;;;15.88;10.10;;;11.10;99.90;;;;;;4926743;29;20027;-95
2021/06/20 04:52:11;;;;;;;16.85;9.98;;;11.10;99.90;;;;;;4928763;29;20096;-95
2021/06/20 04:54:49;;;;;;;16.30;9.50;;;11.10;99.90;;;;;;4924907;29;20024;-95
2021/06/20 04:57:16;;;;;;;15.35;9.40;;;11.10;99.90;;;;;;4923467;29;20024;-94
2021/06/20 04:59:42;;;;;;;14.75;8.98;;;11.10;99.90;;;;;;4924463;29;20024;-95
2021/06/20 05:02:09;;;;;;;16.02;8.80;;;11.10;99.90;;;;;;4924459;29;20054;-96
2021/06/20 05:04:35;;;;;;;13.50;7.03;;;11.10;99.90;;;;;;4922720;29;20103;-96
2021/06/20 05:07:01;;;;;;;15.32;6.97;;;11.20;99.90;;;;;;4922653;29;20115;-95
2021/06/20 05:09:27;;;;;;;11.07;8.23;;;11.10;99.90;;;;;;4924464;29;20024;-95
2021/06/20 05:11:53;;;;;;;9.18;7.03;;;11.20;99.90;;;;;;4923852;29;20466;-96
2021/06/20 05:14:19;;;;;;;12.85;7.82;;;11.20;99.90;;;;;;4922581;29;20039;-95
2021/06/20 05:16:45;;;;;;;10.88;7.72;;;11.20;99.90;;;;;;4920466;29;20056;-96
2021/06/20 05:19:10;;;;;;;15.50;7.93;;;11.30;99.90;;;;;;4919714;29;20478;-96
2021/06/20 05:21:36;;;;;;;12.13;7.78;;;11.30;99.90;;;;;;4919625;29;20028;-95
2021/06/20 05:24:03;;;;;;;14.90;8.23;;;11.30;99.90;;;;;;4918987;29;20084;-95
2021/06/20 05:26:29;;;;;;;17.88;8.48;;;11.30;99.90;;;;;;4918753;29;20119;-96
2021/06/20 05:28:54;;;;;;;18.30;9.90;;;11.30;99.90;;;;;;4918674;29;20066;-95
2021/06/20 05:31:20;;;;;;;17.67;10.32;;;11.30;99.90;;;;;;4921281;29;20047;-95
2021/06/20 05:33:46;;;;;;;15.65;9.65;;;11.40;99.90;;;;;;4926214;29;20029;-95
2021/06/20 05:36:11;;;;;;;15.43;9.95;;;11.40;99.90;;;;;;4929544;29;20036;-95
2021/06/20 05:38:38;;;;;;;14.05;8.48;;;11.40;99.90;;;;;;4924068;29;20024;-95
2021/06/20 05:41:05;;;;;;;15.88;10.48;;;11.40;99.90;;;;;;4924281;29;20036;-94
2021/06/20 05:43:31;;;;;;;18.83;10.15;;;11.50;99.90;;;;;;4925494;29;20119;-95
2021/06/20 05:45:57;;;;;;;15.95;9.98;;;11.50;99.90;;;;;;4909541;29;20083;-95
2021/06/20 05:48:23;;;;;;;16.30;11.02;;;11.50;99.90;;;;;;4921994;29;20040;-96
2021/06/20 05:50:49;;;;;;;15.25;9.02;;;11.60;99.90;;;;;;4918281;29;20036;-95
2021/06/20 05:53:17;;;;;;;13.57;9.90;;;11.60;99.90;;;;;;4919096;29;20039;-96
2021/06/20 05:55:44;;;;;;;14.55;9.90;;;11.60;99.90;;;;;;4918665;29;20087;-96
2021/06/20 05:58:09;;;;;;;14.95;11.13;;;11.70;99.90;;;;;;4920894;29;20028;-95
2021/06/20 06:00:35;;;;;;;16.48;10.25;;;11.70;99.90;;;;;;4907137;29;20055;-96
2021/06/20 06:03:01;;;;;;;14.23;9.10;;;11.70;99.90;;;;;;4941062;29;20052;-96
2021/06/20 06:05:27;;;;;;;14.68;11.00;;;11.80;99.90;;;;;;4939341;29;20044;-95
2021/06/20 06:07:53;;;;;;;16.13;11.00;;;11.80;99.90;;;;;;4931024;29;20043;-94
2021/06/20 06:10:19;;;;;;;16.48;9.38;;;11.80;99.90;;;;;;4921756;29;20032;-95
2021/06/20 06:12:46;;;;;;;15.27;11.05;;;11.90;99.90;;;;;;4920292;29;20024;-94
2021/06/20 06:15:13;;;;;;;17.27;11.75;;;11.80;99.90;;;;;;4928295;29;20106;-95
2021/06/20 06:17:39;;;;;;;22.13;11.85;;;11.80;99.90;;;;;;4911587;29;20055;-94
2021/06/20 06:20:06;;;;;;;15.95;10.60;;;11.80;99.90;;;;;;4927418;29;20071;-96
2021/06/20 06:22:33;;;;;;;20.38;10.88;;;11.80;99.90;;;;;;4907610;29;20032;-96
2021/06/20 06:24:59;;;;;;;17.15;11.43;;;11.80;99.90;;;;;;4910093;29;20048;-95
2021/06/20 06:27:25;;;;;;;18.17;11.38;;;11.80;99.90;;;;;;4925812;29;20120;-96
2021/06/20 06:29:55;;;;;;;18.67;11.20;;;11.80;99.90;;;;;;4925151;29;20075;-95
2021/06/20 06:32:21;;;;;;;18.33;12.43;;;11.80;99.90;;;;;;4924392;29;20028;-96
2021/06/20 06:34:48;;;;;;;20.48;11.32;;;11.80;99.90;;;;;;4923165;29;20110;-95
2021/06/20 06:37:14;;;;;;;20.33;12.20;;;11.90;99.90;;;;;;4907217;29;20084;-95
2021/06/20 06:39:41;;;;;;;19.55;10.98;;;11.90;99.90;;;;;;4921156;29;20028;-95
2021/06/20 06:42:08;;;;;;;17.35;11.25;;;11.90;99.90;;;;;;4920343;29;20610;-95
2021/06/20 06:44:35;;;;;;;20.65;12.18;;;11.90;99.90;;;;;;4919640;29;20040;-96
2021/06/20 06:47:01;;;;;;;22.52;10.52;;;12.00;99.90;;;;;;4910305;29;20681;-96
2021/06/20 06:49:49;;;;;;;16.48;9.55;;;12.00;99.90;;;;;;4890585;29;20085;-96
2021/06/20 06:52:15;;;;;;;16.02;9.57;;;12.00;99.90;;;;;;4887513;29;20040;-95
2021/06/20 06:54:50;;;;;;;15.40;10.40;;;11.90;99.90;;;;;;4896410;29;20042;-96
2021/06/20 06:57:21;;;;;;;14.75;10.00;;;11.90;99.90;;;;;;4904900;29;20485;-96
2021/06/20 06:59:47;;;;;;;16.80;10.40;;;11.90;99.90;;;;;;4903868;29;20032;-94
2021/06/20 07:02:14;;;;;;;17.15;9.93;;;11.90;99.90;;;;;;4911180;29;20143;-94
2021/06/20 07:04:40;;;;;;;13.65;8.68;;;11.90;99.90;;;;;;4911980;29;20035;-95
2021/06/20 07:07:07;;;;;;;14.93;10.18;;;12.00;99.90;;;;;;4931240;29;20063;-95
2021/06/20 07:09:33;;;;;;;16.88;9.90;;;11.90;99.90;;;;;;4914253;29;20039;-95
2021/06/20 07:12:01;;;;;;;13.68;9.80;;;12.00;99.90;;;;;;4939220;29;20028;-95
2021/06/20 07:14:30;;;;;;;17.90;10.05;;;12.00;99.90;;;;;;4928534;29;20143;-96
2021/06/20 07:16:58;;;;;;;17.90;9.50;;;12.00;99.90;;;;;;4926678;29;20024;-94
2021/06/20 07:19:24;;;;;;;14.80;10.25;;;12.00;99.90;;;;;;4931338;29;20039;-96
2021/06/20 07:21:50;;;;;;;16.38;11.48;;;12.00;99.90;;;;;;4926024;29;20064;-95
2021/06/20 07:24:17;;;;;;;19.73;9.70;;;12.00;99.90;;;;;;4945209;29;20039;-94
2021/06/20 07:26:44;;;;;;;16.13;10.27;;;12.00;99.90;;;;;;4932610;29;20031;-96
2021/06/20 07:29:12;;;;;;;19.25;10.80;;;12.00;99.90;;;;;;4930458;29;20035;-96
2021/06/20 07:32:04;;;;;;;;;;;;;;;;;;;;;
2021/06/20 07:34:33;;;;;;;18.08;12.23;;;12.10;99.90;;;;;;4919789;29;20142;-96
2021/06/20 07:37:00;;;;;;;17.73;11.30;;;12.20;99.90;;;;;;4940819;29;20099;-96
2021/06/20 07:39:26;;;;;;;19.65;11.43;;;12.10;99.90;;;;;;4945839;29;20032;-96
2021/06/20 07:41:52;;;;;;;18.10;10.55;;;12.20;99.90;;;;;;4918215;29;20033;-95
2021/06/20 07:44:21;;;;;;;18.67;10.98;;;12.20;99.90;;;;;;4928889;29;20051;-96
2021/06/20 07:49:28;;;;;;;19.65;10.82;;;12.20;99.90;;;;;;5111990;23;19922;-96
2021/06/20 07:51:55;;;;;;;17.80;11.35;;;12.30;99.90;;;;;;4976305;28;20038;-94
2021/06/20 08:08:13;;;;;;;19.33;11.57;;;12.70;99.90;;;;;;6069094;23;19920;-96
2021/06/20 08:10:39;;;;;;;16.70;10.65;;;12.70;99.90;;;;;;4969304;28;20046;-95
2021/06/20 08:13:17;;;;;;;15.93;11.05;;;12.70;99.90;;;;;;4983401;28;20055;-96
2021/06/20 08:32:24;;;;;;;19.25;10.98;;;12.70;99.90;;;;;;6042477;23;20037;-96
2021/06/20 08:34:51;;;;;;;14.63;10.18;;;12.70;99.90;;;;;;4967748;28;20039;-95
2021/06/20 08:37:17;;;;;;;15.27;9.80;;;12.80;99.90;;;;;;4969703;28;20038;-95
2021/06/20 08:39:46;;;;;;;18.30;10.48;;;12.80;99.90;;;;;;4977218;28;20045;-95
2021/06/20 08:55:48;;;;;;;12.65;8.98;;;13.00;99.90;;;;;;6017686;23;20041;-96
2021/06/20 10:48:00;;;;;;;14.23;7.82;;;15.50;99.90;;;;;;5772346;23;20057;-95
2021/06/20 10:50:41;;;;;;;14.30;7.63;;;15.50;99.90;;;;;;5028547;28;20105;-96
2021/06/20 10:53:10;;;;;;;13.70;6.78;;;15.60;99.90;;;;;;5050784;23;20046;-96
2021/06/20 10:55:55;;;;;;;10.63;7.20;;;15.70;99.90;;;;;;5026661;28;20026;-94
2021/06/20 10:58:30;;;;;;;9.68;5.38;;;15.90;99.90;;;;;;5013181;28;20026;-94
2021/06/20 11:01:21;;;;;;;13.68;7.47;;;16.00;99.70;;;;;;5021663;28;20048;-96
2021/06/20 11:04:00;;;;;;;9.30;6.28;;;16.20;99.20;;;;;;5009493;28;20151;-93
2021/06/20 11:06:29;;;;;;;10.70;6.25;;;16.40;98.40;;;;;;5029482;28;20030;-96
2021/06/20 11:09:10;;;;;;;9.80;5.97;;;16.70;97.50;;;;;;5014875;28;20014;-95
2021/06/20 11:12:06;;;;;;;9.43;6.03;;;16.90;96.30;;;;;;5098971;23;20051;-95
2021/06/20 11:14:43;;;;;;;9.63;4.68;;;17.30;95.20;;;;;;5018895;28;20077;-94
2021/06/20 11:17:10;;;;;;;7.32;4.22;;;17.60;94.00;;;;;;5033126;28;20018;-94
2021/06/20 11:19:40;;;;;;;13.18;5.55;;;17.80;91.50;;;;;;5014007;28;20026;-93
2021/06/20 11:22:09;;;;;;;10.33;4.60;;;18.10;90.40;;;;;;5011885;28;20025;-95
2021/06/20 11:24:48;;;;;;;7.65;5.20;;;18.30;89.90;;;;;;5015307;28;20022;-95
2021/06/20 11:27:25;;;;;;;8.93;5.40;;;18.40;86.90;;;;;;5030709;28;20030;-96
2021/06/20 11:29:59;;;;;;;11.57;5.85;;;18.50;86.30;;;;;;5015625;28;20030;-95
2021/06/20 11:32:31;;;;;;;7.55;5.35;;;18.50;85.10;;;;;;5013215;28;20018;-95
2021/06/20 11:35:04;;;;;;;7.63;4.93;;;18.50;84.60;;;;;;5011517;28;20468;-95
2021/06/20 11:37:38;;;;;;;8.57;5.15;;;18.50;83.90;;;;;;5054209;23;20037;-95
2021/06/20 11:40:08;;;;;;;5.97;4.85;;;18.50;83.00;;;;;;4989271;28;20046;-95
2021/06/20 11:42:41;;;;;;;11.73;5.72;;;18.40;82.90;;;;;;4989706;28;20034;-94
2021/06/20 11:45:09;;;;;;;16.73;6.90;;;18.40;82.80;;;;;;4983517;28;20039;-90
2021/06/20 11:47:41;;;;;;;7.03;5.10;;;18.30;82.80;;;;;;4981702;28;20023;-92
2021/06/20 11:50:20;;;;;;;6.82;4.97;;;18.10;82.20;;;;;;4980037;28;20085;-92
2021/06/20 11:53:03;;;;;;;8.10;5.53;;;18.00;82.10;;;;;;5000121;28;20034;-92
2021/06/20 11:55:52;;;;;;;11.25;5.75;;;17.80;81.80;;;;;;5000020;28;20094;-91
2021/06/20 11:58:20;;;;;;;12.18;6.25;;;17.60;81.70;;;;;;4999619;28;20503;-94
2021/06/20 12:00:49;;;;;;;8.77;5.88;;;17.50;82.00;;;;;;4982901;28;20030;-93
2021/06/20 12:03:21;;;;;;;11.13;6.30;;;17.40;82.00;;;;;;4998684;28;20027;-94
2021/06/20 12:05:59;;;;;;;8.77;5.50;;;17.30;82.20;;;;;;4982595;28;20047;-94
2021/06/20 12:08:25;;;;;;;8.07;6.00;;;17.40;82.70;;;;;;5012140;28;20089;-93
2021/06/20 12:10:52;;;;;;;12.07;7.28;;;17.40;82.10;;;;;;4983715;28;20035;-93
2021/06/20 12:13:19;;;;;;;12.82;6.47;;;17.40;82.00;;;;;;4964527;28;20098;-93
2021/06/20 12:15:45;;;;;;;9.73;6.18;;;17.50;81.80;;;;;;4981366;28;20559;-93
2021/06/20 12:18:14;;;;;;;8.52;5.82;;;17.60;81.10;;;;;;5001835;28;20095;-95
2021/06/20 12:20:59;;;;;;;8.38;5.57;;;17.80;81.00;;;;;;4987948;28;20027;-92
2021/06/20 12:23:36;;;;;;;12.00;6.65;;;17.90;80.90;;;;;;5016490;28;20057;-94
2021/06/20 12:26:36;;;;;;;11.48;7.30;;;18.10;80.70;;;;;;5011172;28;20035;-94
2021/06/20 12:29:08;;;;;;;10.40;6.35;;;18.00;80.10;;;;;;4979615;28;20027;-94
2021/06/20 12:31:39;;;;;;;11.52;6.00;;;18.00;80.10;;;;;;4992094;28;20030;-92
2021/06/20 12:34:15;;;;;;;10.02;6.38;;;17.90;80.00;;;;;;5007738;28;20023;-94
2021/06/20 12:36:56;;;;;;;9.63;6.13;;;17.90;80.00;;;;;;5007543;28;20069;-95
2021/06/20 12:39:22;;;;;;;8.27;5.82;;;17.90;80.30;;;;;;5011149;28;20035;-95
2021/06/20 12:42:00;;;;;;;10.07;6.38;;;17.90;80.20;;;;;;5005607;28;20543;-94
2021/06/20 12:44:37;;;;;;;7.82;5.80;;;18.00;80.00;;;;;;5023417;28;20058;-94
2021/06/20 12:47:10;;;;;;;8.95;6.00;;;18.00;79.60;;;;;;4990434;28;20077;-94
2021/06/20 12:49:38;;;;;;;7.68;5.97;;;18.00;79.30;;;;;;4991905;28;20014;-93
2021/06/20 12:52:05;;;;;;;11.05;6.72;;;17.90;79.00;;;;;;5011026;28;20018;-93
2021/06/20 12:54:52;;;;;;;11.55;6.90;;;17.90;79.20;;;;;;4993490;28;20054;-93
2021/06/20 12:57:20;;;;;;;10.55;7.35;;;17.90;78.60;;;;;;4992600;28;20029;-93
2021/06/20 12:59:46;;;;;;;12.05;6.43;;;17.90;78.40;;;;;;4984936;28;20035;-93
2021/06/20 13:02:32;;;;;;;11.27;6.78;;;17.80;78.40;;;;;;4984438;28;20049;-95
2021/06/20 13:05:05;;;;;;;13.77;7.57;;;17.80;78.70;;;;;;5006223;28;20042;-94
2021/06/20 13:07:41;;;;;;;11.63;6.95;;;17.90;78.90;;;;;;4999703;28;20054;-92
2021/06/20 13:10:13;;;;;;;12.23;7.10;;;18.00;79.00;;;;;;4984213;28;20062;-96
2021/06/20 13:12:39;;;;;;;11.30;7.22;;;18.00;79.00;;;;;;5010949;28;20027;-95
2021/06/20 13:15:13;;;;;;;11.30;7.32;;;18.00;79.10;;;;;;5008282;28;20061;-93
2021/06/20 13:17:40;;;;;;;10.75;7.10;;;18.00;79.00;;;;;;5007847;28;20022;-94
2021/06/20 13:20:09;;;;;;;11.65;7.05;;;17.90;79.00;;;;;;5009084;28;20018;-94
2021/06/20 13:22:35;;;;;;;10.65;7.30;;;17.80;79.30;;;;;;5007016;28;20023;-95
2021/06/20 13:25:01;;;;;;;15.30;8.18;;;17.70;79.50;;;;;;4999648;28;20046;-95
2021/06/20 13:27:26;;;;;;;10.85;7.25;;;17.70;79.70;;;;;;4996177;28;20033;-93
2021/06/20 13:29:52;;;;;;;9.45;6.60;;;17.60;80.00;;;;;;4997755;28;20058;-94
2021/06/20 13:32:19;;;;;;;13.40;6.72;;;17.60;80.30;;;;;;5005802;28;20022;-96
2021/06/20 13:34:46;;;;;;;9.32;6.85;;;17.50;80.20;;;;;;4989391;28;20389;-94
2021/06/20 13:37:13;;;;;;;11.65;6.95;;;17.30;80.30;;;;;;4999242;28;20027;-95
2021/06/20 13:39:39;;;;;;;10.07;6.30;;;17.30;81.00;;;;;;4977373;28;20063;-96
2021/06/20 13:42:06;;;;;;;14.80;7.47;;;17.30;81.30;;;;;;4992439;28;20022;-96
2021/06/20 13:44:32;;;;;;;12.27;7.40;;;17.30;81.30;;;;;;5000903;28;20034;-94
2021/06/20 13:46:58;;;;;;;11.70;7.00;;;17.30;81.00;;;;;;5002884;28;20103;-95
2021/06/20 13:49:24;;;;;;;13.95;7.20;;;17.30;81.00;;;;;;5006327;28;20042;-95
2021/06/20 13:51:55;;;;;;;11.85;7.00;;;17.40;81.20;;;;;;4993178;28;20046;-94
2021/06/20 13:54:27;;;;;;;9.70;6.45;;;17.70;81.40;;;;;;4973185;28;20058;-94
2021/06/20 13:56:56;;;;;;;9.50;5.90;;;18.00;81.00;;;;;;5004941;28;20021;-96
2021/06/20 13:59:22;;;;;;;8.10;5.65;;;18.30;80.20;;;;;;5018406;28;20361;-96
2021/06/20 14:01:53;;;;;;;9.35;6.28;;;18.60;79.70;;;;;;4997217;28;20026;-96
2021/06/20 14:04:20;;;;;;;;;;;19.00;79.40;;;;;;4991959;28;20038;-95
2021/06/20 14:06:52;;;;;;;12.38;6.57;;;19.30;78.40;;;;;;4991385;28;19905;-95
2021/06/20 14:09:19;;;;;;;11.48;6.47;;;19.50;77.30;;;;;;5005608;28;20030;-95
2021/06/20 14:11:45;;;;;;;10.88;6.32;;;19.80;76.50;;;;;;4985918;28;20388;-94
2021/06/20 14:14:12;;;;;;;11.23;6.80;;;19.90;74.70;;;;;;4985347;28;20041;-94
2021/06/20 14:16:38;;;;;;;11.23;6.18;;;19.90;74.40;;;;;;4986873;28;20041;-96
2021/06/20 14:19:07;;;;;;;9.70;6.53;;;20.00;73.90;;;;;;4988350;28;20034;-95
2021/06/20 14:21:34;;;;;;;11.52;6.47;;;20.10;72.30;;;;;;4990639;28;20030;-94
2021/06/20 14:24:00;;;;;;;13.60;7.10;;;20.10;71.90;;;;;;4987098;28;20038;-95
2021/06/20 14:26:25;;;;;;;12.60;6.70;;;20.10;71.80;;;;;;5003007;28;20041;-95
2021/06/20 14:28:51;;;;;;;11.98;6.68;;;20.10;71.50;;;;;;4985611;28;20049;-95
2021/06/20 14:31:17;;;;;;;11.43;7.22;;;20.10;71.60;;;;;;4985238;28;20091;-95
2021/06/20 14:33:42;;;;;;;12.65;6.32;;;20.20;71.80;;;;;;4984929;28;20094;-93
2021/06/20 14:36:08;;;;;;;11.35;6.55;;;20.40;71.60;;;;;;4989377;28;20026;-94
2021/06/20 14:38:34;;;;;;;9.18;6.28;;;20.50;71.20;;;;;;5000407;28;20065;-95
2021/06/20 14:41:01;;;;;;;11.25;7.38;;;20.60;70.90;;;;;;5001521;28;20023;-96
2021/06/20 14:43:28;;;;;;;12.18;6.35;;;20.60;70.50;;;;;;4998527;28;20096;-95
2021/06/20 14:45:57;;;;;;;12.95;6.38;;;20.90;70.60;;;;;;4984042;28;20057;-95
2021/06/20 14:48:23;;;;;;;8.45;6.38;;;21.10;70.00;;;;;;5000548;28;20027;-96
2021/06/20 14:50:52;;;;;;;10.90;6.70;;;21.20;70.20;;;;;;4999937;28;20053;-95
2021/06/20 14:53:19;;;;;;;8.85;6.43;;;21.30;69.30;;;;;;5001265;28;20050;-93
2021/06/20 14:55:46;;;;;;;14.43;6.55;;;21.30;68.60;;;;;;5000290;28;20086;-96
2021/06/20 14:58:13;;;;;;;9.80;6.10;;;21.20;68.10;;;;;;4996680;28;20022;-94
2021/06/20 15:00:43;;;;;;;8.82;6.28;;;21.20;67.70;;;;;;5001347;28;20037;-96
2021/06/20 15:03:13;;;;;;;11.63;6.45;;;21.10;67.10;;;;;;4992597;28;20054;-96
2021/06/20 15:05:45;;;;;;;9.75;6.43;;;21.10;67.80;;;;;;4996511;28;20033;-96
2021/06/20 15:08:14;;;;;;;8.23;6.13;;;21.10;67.10;;;;;;4990921;28;20019;-95
2021/06/20 15:10:44;;;;;;;8.35;6.28;;;21.10;67.40;;;;;;4992248;28;20088;-95
2021/06/20 15:13:09;;;;;;;8.90;6.05;;;21.10;67.30;;;;;;4992434;28;20034;-96
2021/06/20 15:15:41;;;;;;;10.13;6.47;;;21.00;66.70;;;;;;5002091;28;20057;-95
2021/06/20 15:18:10;;;;;;;10.23;6.78;;;20.90;67.20;;;;;;4985589;28;20129;-95
2021/06/20 15:20:42;;;;;;;9.88;6.22;;;20.90;67.40;;;;;;5005660;28;20026;-96
2021/06/20 15:23:10;;;;;;;10.27;6.32;;;21.00;67.50;;;;;;4985536;28;20026;-95
2021/06/20 15:25:36;;;;;;;10.35;5.93;;;20.90;67.20;;;;;;4984725;28;20106;-93
2021/06/20 15:28:02;;;;;;;12.77;6.65;;;20.80;67.10;;;;;;4985134;28;20098;-94
2021/06/20 15:30:28;;;;;;;8.00;6.30;;;20.70;67.10;;;;;;5000040;28;20404;-94
2021/06/20 15:32:57;;;;;;;7.28;5.50;;;20.70;67.40;;;;;;4984417;28;20022;-94
2021/06/20 15:35:26;;;;;;;8.80;5.93;;;20.90;67.50;;;;;;4984834;28;20030;-95
2021/06/20 15:38:00;;;;;;;10.40;6.20;;;20.90;67.10;;;;;;4983586;28;20054;-96
2021/06/20 15:40:29;;;;;;;14.57;6.30;;;20.80;67.10;;;;;;4984724;28;20035;-95
2021/06/20 15:43:01;;;;;;;10.15;6.80;;;20.80;67.20;;;;;;4984940;28;20108;-96
2021/06/20 15:45:27;;;;;;;7.55;5.57;;;20.80;67.40;;;;;;5001544;28;20042;-95
2021/06/20 15:47:55;;;;;;;7.28;4.97;;;20.80;67.10;;;;;;4984586;28;20114;-95
2021/06/20 15:50:35;;;;;;;6.82;5.47;;;20.60;66.10;;;;;;4970185;28;20030;-95
2021/06/20 15:53:10;;;;;;;8.35;5.72;;;20.60;65.90;;;;;;5008848;28;20026;-95
2021/06/20 15:55:40;;;;;;;8.60;5.50;;;20.50;65.90;;;;;;5012952;28;20029;-96
2021/06/20 15:58:09;;;;;;;9.77;5.93;;;20.50;65.80;;;;;;5006140;28;20034;-95
2021/06/20 16:00:41;;;;;;;10.43;6.53;;;20.40;65.70;;;;;;5014384;28;20050;-96
2021/06/20 16:03:10;;;;;;;8.65;5.35;;;20.50;66.40;;;;;;5018122;28;20057;-95
2021/06/20 16:06:00;;;;;;;8.07;6.30;;;20.50;66.80;;;;;;5008248;28;20030;-94
2021/06/20 16:08:35;;;;;;;9.57;6.63;;;20.60;67.80;;;;;;5005273;28;20022;-95
2021/06/20 16:11:25;;;;;;;13.05;6.93;;;20.50;68.40;;;;;;4986355;28;20047;-96
2021/06/20 16:13:58;;;;;;;10.77;6.78;;;20.40;69.30;;;;;;4997688;28;20105;-94
2021/06/20 16:34:53;;;;;;;8.88;6.95;;;19.80;72.20;;;;;;5041862;28;20018;-95
2021/06/20 16:37:21;;;;;;;9.85;6.90;;;19.70;72.30;;;;;;5017615;28;20068;-96
2021/06/20 16:39:48;;;;;;;12.30;7.00;;;19.60;72.60;;;;;;5027371;28;20033;-94
2021/06/20 16:42:51;;;;;;;;;;;;;;;;;;;;;
2021/06/20 16:45:21;;;;;;;10.07;7.05;;;19.30;73.10;;;;;;5025978;28;20148;-95
2021/06/20 16:47:47;;;;;;;12.82;6.88;;;19.20;73.70;;;;;;5028519;28;20033;-95
2021/06/20 16:50:13;;;;;;;15.57;7.88;;;19.10;73.90;;;;;;5039595;28;20101;-95
2021/06/20 16:52:39;;;;;;;12.77;6.97;;;19.00;73.80;;;;;;5037761;28;20034;-96
2021/06/20 16:55:18;;;;;;;11.82;7.57;;;18.80;74.00;;;;;;5007627;28;20045;-95
2021/06/20 16:57:46;;;;;;;9.30;6.05;;;18.70;74.10;;;;;;5029099;28;20093;-95
2021/06/20 17:00:14;;;;;;;11.90;7.50;;;18.70;74.20;;;;;;5025872;28;20036;-94
2021/06/20 17:02:42;;;;;;;10.73;6.70;;;18.70;74.40;;;;;;5023993;28;20041;-96